createdAt,value
2018-06-18T00:02:08.631Z,17.56
2018-06-18T00:04:38.049Z,17.52
2018-06-18T00:07:07.569Z,17.57
2018-06-18T00:09:38.603Z,17.56
2018-06-18T00:12:08.079Z,17.51
2018-06-18T00:14:37.901Z,17.54
2018-06-18T00:17:07.491Z,17.51
2018-06-18T00:19:38.595Z,17.55
2018-06-18T00:22:12.240Z,17.56
2018-06-18T00:24:41.666Z,17.53
2018-06-18T00:27:11.073Z,17.52
2018-06-18T00:29:40.477Z,17.54
2018-06-18T00:32:10.339Z,17.51
2018-06-18T00:34:41.687Z,17.49
2018-06-18T00:37:12.646Z,17.49
2018-06-18T00:39:42.444Z,17.52
2018-06-18T00:42:12.142Z,17.54
2018-06-18T00:44:41.572Z,17.51
2018-06-18T00:47:10.897Z,17.57
2018-06-18T00:49:40.677Z,17.55
2018-06-18T00:52:10.207Z,17.52
2018-06-18T00:54:39.575Z,17.50
2018-06-18T00:57:09.013Z,17.49
2018-06-18T00:59:39.257Z,17.45
2018-06-18T01:02:12.651Z,17.48
2018-06-18T01:04:42.183Z,17.44
2018-06-18T01:07:11.746Z,17.47
2018-06-18T01:09:41.199Z,17.43
2018-06-18T01:12:10.772Z,17.40
2018-06-18T01:14:40.136Z,17.36
2018-06-18T01:17:09.492Z,17.41
2018-06-18T01:19:39.079Z,17.35
2018-06-18T01:22:08.434Z,17.37
2018-06-18T01:24:54.455Z,17.35
2018-06-18T01:27:23.765Z,17.36
2018-06-18T01:29:53.219Z,17.33
2018-06-18T01:32:24.181Z,17.34
2018-06-18T01:34:55.306Z,17.40
2018-06-18T01:40:01.485Z,17.34
2018-06-18T01:42:32.909Z,17.31
2018-06-18T01:45:06.764Z,17.31
2018-06-18T01:47:38.907Z,17.28
2018-06-18T01:50:10.900Z,17.28
2018-06-18T01:52:43.190Z,17.22
2018-06-18T01:55:13.031Z,17.24
2018-06-18T01:57:42.888Z,17.22
2018-06-18T02:00:12.866Z,17.22
2018-06-18T02:02:47.172Z,17.20
2018-06-18T02:05:18.423Z,17.14
2018-06-18T02:07:48.003Z,17.10
2018-06-18T02:13:14.212Z,17.10
2018-06-18T02:15:43.540Z,17.07
2018-06-18T02:18:13.192Z,17.10
2018-06-18T02:20:47.187Z,17.12
2018-06-18T02:23:17.865Z,17.10
2018-06-18T02:25:47.418Z,17.10
2018-06-18T02:28:22.026Z,17.08
2018-06-18T02:30:57.144Z,17.06
2018-06-18T02:33:31.867Z,17.04
2018-06-18T02:37:06.998Z,17.03
2018-06-18T02:39:41.577Z,17.05
2018-06-18T02:42:12.698Z,17.04
2018-06-18T02:44:43.452Z,17.03
2018-06-18T02:47:15.434Z,17.03
2018-06-18T02:49:45.064Z,17.06
2018-06-18T02:52:14.904Z,17.02
2018-06-18T02:54:44.797Z,17.02
2018-06-18T02:57:15.448Z,17.03
2018-06-18T02:59:44.677Z,17.08
2018-06-18T03:02:14.195Z,17.07
2018-06-18T03:04:43.607Z,17.15
2018-06-18T03:07:14.015Z,17.11
2018-06-18T03:09:43.354Z,17.10
2018-06-18T03:12:12.829Z,17.14
2018-06-18T03:14:42.178Z,17.19
2018-06-18T03:17:11.593Z,17.13
2018-06-18T03:19:46.047Z,17.16
2018-06-18T03:22:20.985Z,17.15
2018-06-18T03:24:57.675Z,17.18
2018-06-18T03:27:32.058Z,17.17
2018-06-18T03:30:01.398Z,17.19
2018-06-18T03:32:31.331Z,17.15
2018-06-18T03:35:00.637Z,17.16
2018-06-18T03:37:29.995Z,17.16
2018-06-18T03:39:59.414Z,17.21
2018-06-18T03:42:28.850Z,17.23
2018-06-18T03:45:07.224Z,17.25
2018-06-18T03:47:36.692Z,17.31
2018-06-18T03:50:07.951Z,17.24
2018-06-18T03:52:38.174Z,17.23
2018-06-18T03:55:16.737Z,17.22
2018-06-18T03:57:47.539Z,17.17
2018-06-18T04:00:17.204Z,17.15
2018-06-18T04:03:01.205Z,17.16
2018-06-18T04:05:35.502Z,17.14
2018-06-18T04:08:11.374Z,17.22
2018-06-18T04:10:47.023Z,17.22
2018-06-18T04:13:16.351Z,17.20
2018-06-18T04:15:48.313Z,17.25
2018-06-18T04:18:17.640Z,17.26
2018-06-18T04:20:50.007Z,17.25
2018-06-18T04:23:19.409Z,17.26
2018-06-18T04:25:48.827Z,17.31
2018-06-18T04:28:18.235Z,17.35
2018-06-18T04:30:47.894Z,17.36
2018-06-18T04:33:23.277Z,17.38
2018-06-18T04:35:52.612Z,17.38
2018-06-18T04:38:21.933Z,17.36
2018-06-18T04:40:51.213Z,17.40
2018-06-18T04:43:25.794Z,17.36
2018-06-18T04:46:00.567Z,17.36
2018-06-18T04:48:35.272Z,17.27
2018-06-18T04:51:04.668Z,17.36
2018-06-18T04:53:34.244Z,17.37
2018-06-18T04:56:04.105Z,17.37
2018-06-18T04:58:33.493Z,17.41
2018-06-18T05:01:19.531Z,17.35
2018-06-18T05:03:48.893Z,17.33
2018-06-18T05:06:18.187Z,17.39
2018-06-18T05:10:54.265Z,17.43
2018-06-18T05:13:23.574Z,17.48
2018-06-18T05:15:54.287Z,17.54
2018-06-18T05:18:23.675Z,17.57
2018-06-18T05:20:52.935Z,17.56
2018-06-18T05:23:22.313Z,17.64
2018-06-18T05:26:01.019Z,17.73
2018-06-18T05:28:30.423Z,17.79
2018-06-18T05:30:59.874Z,17.84
2018-06-18T05:33:29.127Z,17.91
2018-06-18T05:35:58.631Z,17.93
2018-06-18T05:38:32.841Z,18.03
2018-06-18T05:41:02.309Z,18.00
2018-06-18T05:43:32.226Z,18.12
2018-06-18T05:46:01.625Z,18.18
2018-06-18T05:48:30.984Z,18.06
2018-06-18T05:51:00.393Z,18.07
2018-06-18T05:53:29.731Z,18.09
2018-06-18T05:55:59.130Z,18.05
2018-06-18T05:58:28.470Z,18.02
2018-06-18T06:00:57.607Z,17.99
2018-06-18T06:03:27.019Z,17.88
2018-06-18T06:05:56.860Z,17.92
2018-06-18T06:08:26.115Z,17.95
2018-06-18T06:10:55.446Z,18.12
2018-06-18T06:13:24.772Z,18.17
2018-06-18T06:15:54.102Z,18.20
2018-06-18T06:18:23.447Z,18.25
2018-06-18T06:21:04.537Z,18.33
2018-06-18T06:23:33.955Z,18.37
2018-06-18T06:26:03.480Z,18.21
2018-06-18T06:28:32.814Z,18.20
2018-06-18T06:31:02.329Z,18.32
2018-06-18T06:33:31.664Z,18.37
2018-06-18T06:36:01.810Z,18.36
2018-06-18T06:38:31.121Z,18.41
2018-06-18T06:41:00.464Z,18.38
2018-06-18T06:43:29.779Z,18.20
2018-06-18T06:45:59.119Z,18.24
2018-06-18T06:48:28.471Z,18.11
2018-06-18T06:50:57.754Z,18.13
2018-06-18T06:53:27.129Z,18.18
2018-06-18T06:55:56.467Z,18.34
2018-06-18T06:58:25.835Z,18.52
2018-06-18T07:00:55.201Z,18.69
2018-06-18T07:03:25.499Z,18.82
2018-06-18T07:06:25.431Z,18.69
2018-06-18T07:08:54.543Z,18.73
2018-06-18T07:11:23.879Z,18.73
2018-06-18T07:13:53.254Z,18.73
2018-06-18T07:16:22.620Z,18.86
2018-06-18T07:18:51.922Z,19.29
2018-06-18T07:21:21.330Z,19.45
2018-06-18T07:23:50.653Z,19.85
2018-06-18T07:26:20.089Z,19.90
2018-06-18T07:28:49.408Z,19.77
2018-06-18T07:31:18.905Z,20.15
2018-06-18T07:33:48.209Z,20.08
2018-06-18T07:36:17.630Z,20.03
2018-06-18T07:38:46.910Z,19.94
2018-06-18T07:41:16.200Z,20.06
2018-06-18T07:43:45.526Z,20.04
2018-06-18T07:46:15.039Z,20.05
2018-06-18T07:48:44.413Z,19.99
2018-06-18T07:51:13.741Z,19.89
2018-06-18T07:53:43.025Z,19.85
2018-06-18T07:56:12.342Z,19.85
2018-06-18T07:58:41.725Z,19.90
2018-06-18T08:01:11.110Z,19.94
2018-06-18T08:03:40.631Z,20.27
2018-06-18T08:06:10.209Z,20.46
2018-06-18T08:08:39.655Z,20.69
2018-06-18T08:11:09.099Z,21.08
2018-06-18T08:13:38.528Z,21.40
2018-06-18T08:16:07.969Z,21.32
2018-06-18T08:18:37.445Z,21.80
2018-06-18T08:21:06.879Z,21.82
2018-06-18T08:23:36.257Z,22.06
2018-06-18T08:26:05.701Z,22.15
2018-06-18T08:28:35.202Z,22.25
2018-06-18T08:31:04.732Z,21.83
2018-06-18T08:33:34.125Z,21.82
2018-06-18T08:36:03.525Z,21.84
2018-06-18T08:38:32.814Z,21.45
2018-06-18T08:41:02.125Z,21.62
2018-06-18T08:43:31.472Z,22.22
2018-06-18T08:46:00.872Z,22.52
2018-06-18T08:48:35.503Z,22.23
2018-06-18T08:51:10.171Z,22.39
2018-06-18T08:53:44.829Z,22.01
2018-06-18T08:56:19.432Z,22.23
2018-06-18T08:58:53.864Z,22.24
2018-06-18T09:01:27.240Z,22.53
2018-06-18T09:04:01.682Z,22.54
2018-06-18T09:06:31.277Z,22.39
2018-06-18T09:09:00.616Z,22.44
2018-06-18T09:11:30.007Z,22.03
2018-06-18T09:13:59.326Z,21.87
2018-06-18T09:16:28.909Z,21.76
2018-06-18T09:18:58.255Z,21.70
2018-06-18T09:21:27.651Z,21.36
2018-06-18T09:23:57.059Z,21.07
2018-06-18T09:26:26.579Z,21.03
2018-06-18T09:28:56.139Z,21.11
2018-06-18T09:31:25.571Z,21.11
2018-06-18T09:33:54.913Z,21.28
2018-06-18T09:36:24.330Z,21.35
2018-06-18T09:38:53.573Z,21.43
2018-06-18T09:41:22.954Z,21.69
2018-06-18T09:43:52.333Z,22.10
2018-06-18T09:46:21.632Z,22.42
2018-06-18T09:48:56.068Z,22.54
2018-06-18T09:51:30.648Z,22.32
2018-06-18T09:54:05.240Z,22.56
2018-06-18T09:56:39.749Z,22.92
2018-06-18T09:59:14.498Z,23.43
2018-06-18T10:01:43.828Z,24.54
2018-06-18T10:04:13.209Z,25.01
2018-06-18T10:06:42.511Z,26.13
2018-06-18T10:09:12.007Z,26.30
2018-06-18T10:11:41.307Z,25.93
2018-06-18T10:14:11.950Z,24.77
2018-06-18T10:16:41.307Z,24.37
2018-06-18T10:19:10.710Z,24.18
2018-06-18T10:21:40.165Z,23.62
2018-06-18T10:24:09.704Z,23.17
2018-06-18T10:26:39.074Z,22.83
2018-06-18T10:29:08.623Z,22.71
2018-06-18T10:31:37.826Z,22.69
2018-06-18T10:34:12.347Z,22.67
2018-06-18T10:37:50.594Z,22.62
2018-06-18T10:40:25.181Z,22.66
2018-06-18T10:42:59.821Z,22.69
2018-06-18T10:45:29.157Z,22.71
2018-06-18T10:47:58.469Z,22.83
2018-06-18T10:50:27.815Z,22.86
2018-06-18T10:52:57.173Z,22.70
2018-06-18T10:55:26.566Z,22.67
2018-06-18T10:57:55.885Z,22.80
2018-06-18T11:00:27.390Z,22.82
2018-06-18T11:02:56.716Z,22.77
2018-06-18T11:05:31.277Z,22.68
2018-06-18T11:08:00.712Z,22.91
2018-06-18T11:10:30.129Z,22.90
2018-06-18T11:12:59.458Z,22.87
2018-06-18T11:15:28.890Z,22.83
2018-06-18T11:18:03.373Z,22.95
2018-06-18T11:20:38.050Z,22.95
2018-06-18T11:23:12.675Z,22.97
2018-06-18T11:25:47.078Z,22.94
2018-06-18T11:28:16.442Z,22.79
2018-06-18T11:30:45.734Z,22.70
2018-06-18T11:33:15.159Z,22.64
2018-06-18T11:35:44.573Z,22.58
2018-06-18T11:38:13.891Z,22.42
2018-06-18T11:40:43.278Z,22.72
2018-06-18T11:43:12.623Z,22.86
2018-06-18T11:45:41.977Z,22.92
2018-06-18T11:48:19.027Z,22.86
2018-06-18T11:50:48.804Z,22.78
2018-06-18T11:53:18.900Z,22.74
2018-06-18T11:55:48.317Z,22.76
2018-06-18T11:58:23.784Z,22.65
2018-06-18T12:00:58.607Z,22.70
2018-06-18T12:03:33.247Z,22.69
2018-06-18T12:06:07.810Z,22.73
2018-06-18T12:08:42.368Z,22.69
2018-06-18T12:11:11.745Z,22.63
2018-06-18T12:13:41.165Z,22.58
2018-06-18T12:16:10.540Z,22.56
2018-06-18T12:18:39.959Z,22.74
2018-06-18T12:21:09.639Z,22.73
2018-06-18T12:23:39.152Z,22.83
2018-06-18T12:26:08.749Z,22.90
2018-06-18T12:28:38.191Z,23.32
2018-06-18T12:31:07.860Z,23.51
2018-06-18T12:33:37.637Z,23.54
2018-06-18T12:36:08.486Z,23.37
2018-06-18T12:38:37.899Z,23.03
2018-06-18T12:41:07.927Z,23.04
2018-06-18T12:43:40.661Z,22.86
2018-06-18T12:46:15.189Z,22.97
2018-06-18T12:48:49.688Z,23.26
2018-06-18T12:51:24.143Z,23.43
2018-06-18T12:53:59.650Z,23.28
2018-06-18T12:56:34.197Z,23.49
2018-06-18T12:59:03.280Z,23.77
2018-06-18T13:01:35.780Z,24.11
2018-06-18T13:04:07.657Z,24.25
2018-06-18T13:06:37.243Z,24.35
2018-06-18T13:09:09.579Z,23.74
2018-06-18T13:11:39.103Z,23.77
2018-06-18T13:14:08.646Z,23.53
2018-06-18T13:16:38.124Z,23.41
2018-06-18T13:19:07.581Z,23.04
2018-06-18T13:21:37.006Z,22.81
2018-06-18T13:24:06.587Z,22.67
2018-06-18T13:26:36.092Z,22.80
2018-06-18T13:29:05.616Z,23.21
2018-06-18T13:31:35.048Z,23.34
2018-06-18T13:34:04.423Z,23.69
2018-06-18T13:36:33.967Z,24.00
2018-06-18T13:39:08.551Z,23.89
2018-06-18T13:43:50.157Z,24.20
2018-06-18T13:46:24.712Z,23.94
2018-06-18T13:48:55.174Z,23.62
2018-06-18T13:51:25.945Z,23.68
2018-06-18T13:53:55.499Z,23.71
2018-06-18T13:56:25.267Z,23.45
2018-06-18T13:58:55.377Z,23.12
2018-06-18T14:01:24.690Z,22.75
2018-06-18T14:03:54.036Z,22.40
2018-06-18T14:06:23.449Z,22.25
2018-06-18T14:08:52.801Z,22.09
2018-06-18T14:11:22.157Z,22.09
2018-06-18T14:13:51.568Z,22.12
2018-06-18T14:16:20.882Z,22.14
2018-06-18T14:18:50.380Z,22.19
2018-06-18T14:21:20.615Z,22.19
2018-06-18T14:23:50.283Z,22.34
2018-06-18T14:26:19.825Z,22.50
2018-06-18T14:28:49.299Z,22.71
2018-06-18T14:31:24.239Z,23.09
2018-06-18T14:34:00.122Z,23.15
2018-06-18T14:36:34.688Z,23.56
2018-06-18T14:39:10.000Z,23.85
2018-06-18T14:41:39.814Z,24.14
2018-06-18T14:44:09.605Z,24.11
2018-06-18T14:46:39.147Z,23.82
2018-06-18T14:49:08.696Z,23.69
2018-06-18T14:51:38.154Z,23.70
2018-06-18T14:54:08.157Z,23.62
2018-06-18T14:56:38.108Z,23.57
2018-06-18T14:59:13.972Z,23.50
2018-06-18T15:01:43.776Z,23.27
2018-06-18T15:04:13.067Z,23.06
2018-06-18T15:06:42.549Z,22.84
2018-06-18T15:09:12.947Z,22.99
2018-06-18T15:11:43.028Z,23.08
2018-06-18T15:14:12.293Z,23.09
2018-06-18T15:16:41.750Z,23.28
2018-06-18T15:19:12.206Z,23.34
2018-06-18T15:21:46.674Z,23.21
2018-06-18T15:24:23.553Z,23.04
2018-06-18T15:26:52.910Z,22.94
2018-06-18T15:29:22.184Z,22.91
2018-06-18T15:31:51.512Z,23.08
2018-06-18T15:34:20.808Z,23.23
2018-06-18T15:36:50.354Z,23.35
2018-06-18T15:39:19.647Z,23.38
2018-06-18T15:41:49.029Z,23.28
2018-06-18T15:44:18.320Z,23.25
2018-06-18T15:46:49.789Z,23.32
2018-06-18T15:49:20.268Z,23.21
2018-06-18T15:51:49.614Z,23.10
2018-06-18T15:54:18.925Z,23.03
2018-06-18T15:56:48.254Z,23.06
2018-06-18T15:59:17.550Z,23.02
2018-06-18T16:01:48.162Z,22.94
2018-06-18T16:04:17.444Z,22.97
2018-06-18T16:06:47.190Z,22.88
2018-06-18T16:09:16.509Z,22.98
2018-06-18T16:11:45.961Z,23.12
2018-06-18T16:14:15.064Z,23.14
2018-06-18T16:16:45.340Z,23.16
2018-06-18T16:19:15.918Z,23.23
2018-06-18T16:21:45.484Z,23.27
2018-06-18T16:24:14.779Z,23.30
2018-06-18T16:26:44.158Z,23.11
2018-06-18T16:29:13.548Z,22.98
2018-06-18T16:31:43.217Z,22.95
2018-06-18T16:34:12.551Z,22.91
2018-06-18T16:36:41.899Z,22.90
2018-06-18T16:39:12.785Z,22.82
2018-06-18T16:41:42.196Z,22.88
2018-06-18T16:44:11.534Z,22.97
2018-06-18T16:46:40.917Z,23.04
2018-06-18T16:49:10.339Z,23.13
2018-06-18T16:51:39.686Z,23.14
2018-06-18T16:54:09.076Z,23.17
2018-06-18T16:57:20.559Z,23.12
2018-06-18T16:59:52.791Z,22.98
2018-06-18T17:02:22.111Z,23.04
2018-06-18T17:04:51.414Z,23.06
2018-06-18T17:07:20.778Z,23.12
2018-06-18T17:09:50.118Z,23.13
2018-06-18T17:12:19.442Z,23.15
2018-06-18T17:14:48.952Z,23.18
2018-06-18T17:17:18.453Z,23.20
2018-06-18T17:19:47.927Z,23.18
2018-06-18T17:22:17.302Z,23.18
2018-06-18T17:24:46.626Z,23.07
2018-06-18T17:27:16.083Z,23.12
2018-06-18T17:29:45.416Z,23.16
2018-06-18T17:32:14.753Z,23.01
2018-06-18T17:34:44.218Z,23.00
2018-06-18T17:37:13.586Z,22.99
2018-06-18T17:39:42.866Z,22.87
2018-06-18T17:42:12.483Z,22.81
2018-06-18T17:44:41.805Z,22.74
2018-06-18T17:47:11.153Z,22.70
2018-06-18T17:49:40.817Z,22.69
2018-06-18T17:52:10.343Z,22.65
2018-06-18T17:54:39.934Z,22.69
2018-06-18T17:57:09.426Z,22.79
2018-06-18T17:59:38.955Z,22.79
2018-06-18T18:02:08.649Z,22.89
2018-06-18T18:04:37.882Z,22.95
2018-06-18T18:07:07.406Z,22.90
2018-06-18T18:09:36.861Z,22.82
2018-06-18T18:12:06.564Z,22.82
2018-06-18T18:14:36.193Z,22.83
2018-06-18T18:17:06.073Z,22.74
2018-06-18T18:19:36.986Z,22.63
2018-06-18T18:22:08.383Z,22.61
2018-06-18T18:24:37.942Z,22.54
2018-06-18T18:27:09.499Z,22.45
2018-06-18T18:29:38.766Z,22.59
2018-06-18T18:32:08.311Z,22.51
2018-06-18T18:34:37.882Z,22.48
2018-06-18T18:37:07.352Z,22.54
2018-06-18T18:39:36.729Z,22.46
2018-06-18T18:42:06.187Z,22.44
2018-06-18T18:44:35.618Z,22.49
2018-06-18T18:47:05.107Z,22.48
2018-06-18T18:49:34.442Z,22.55
2018-06-18T18:52:03.913Z,22.50
2018-06-18T18:56:01.130Z,22.36
2018-06-18T18:59:42.867Z,22.28
2018-06-18T19:02:15.384Z,22.27
2018-06-18T19:05:00.138Z,22.33
2018-06-18T19:07:43.730Z,22.24
2018-06-18T19:10:37.451Z,22.28
2018-06-18T19:13:14.216Z,22.23
2018-06-18T19:15:43.610Z,22.13
2018-06-18T19:18:12.890Z,22.08
2018-06-18T19:20:51.004Z,21.93
2018-06-18T19:23:20.355Z,21.89
2018-06-18T19:25:51.533Z,21.81
2018-06-18T19:28:22.187Z,21.71
2018-06-18T19:30:59.807Z,21.74
2018-06-18T19:33:49.464Z,21.66
2018-06-18T19:36:20.863Z,21.65
2018-06-18T19:38:52.139Z,21.48
2018-06-18T19:41:21.190Z,21.37
2018-06-18T19:43:50.689Z,21.37
2018-06-18T19:46:26.930Z,21.34
2018-06-18T19:49:12.891Z,21.29
2018-06-18T19:51:46.646Z,21.36
2018-06-18T19:54:23.794Z,21.26
2018-06-18T19:56:54.321Z,21.23
2018-06-18T19:59:24.487Z,21.19
2018-06-18T20:01:53.895Z,21.12
2018-06-18T20:04:23.315Z,21.12
2018-06-18T20:06:52.718Z,21.01
2018-06-18T20:09:23.666Z,21.06
2018-06-18T20:11:53.014Z,21.01
2018-06-18T20:14:23.481Z,20.89
2018-06-18T20:16:53.018Z,20.88
2018-06-18T20:19:22.318Z,20.96
2018-06-18T20:21:51.632Z,20.97
2018-06-18T20:24:20.984Z,20.91
2018-06-18T20:26:50.285Z,20.82
2018-06-18T20:29:19.521Z,20.82
2018-06-18T20:31:48.865Z,20.85
2018-06-18T20:34:18.255Z,20.89
2018-06-18T20:36:47.597Z,20.90
2018-06-18T20:39:35.177Z,20.88
2018-06-18T20:42:20.708Z,20.92
2018-06-18T20:45:13.372Z,20.89
2018-06-18T20:47:59.433Z,20.76
2018-06-18T20:50:48.338Z,20.63
2018-06-18T20:53:36.019Z,20.76
2018-06-18T20:56:16.537Z,20.87
2018-06-18T20:59:02.736Z,20.90
2018-06-18T21:01:42.616Z,20.94
2018-06-18T21:04:23.249Z,20.89
2018-06-18T21:07:20.769Z,21.01
2018-06-18T21:10:19.914Z,20.83
2018-06-18T21:13:17.214Z,20.77
2018-06-18T21:15:52.499Z,20.84
2018-06-18T21:18:21.920Z,20.74
2018-06-18T21:20:51.360Z,20.69
2018-06-18T21:23:20.732Z,20.70
2018-06-18T21:25:52.281Z,20.71
2018-06-18T21:28:21.882Z,20.63
2018-06-18T21:30:51.172Z,20.67
2018-06-18T21:33:20.507Z,20.63
2018-06-18T21:35:49.833Z,20.68
2018-06-18T21:38:19.166Z,20.45
2018-06-18T21:40:48.677Z,20.43
2018-06-18T21:43:17.945Z,20.40
2018-06-18T21:45:47.334Z,20.37
2018-06-18T21:48:16.700Z,20.14
2018-06-18T21:50:45.997Z,20.00
2018-06-18T21:53:15.367Z,19.92
2018-06-18T21:55:44.741Z,19.88
2018-06-18T21:58:14.079Z,19.77
2018-06-18T22:00:52.763Z,19.67
2018-06-18T22:03:26.567Z,19.60
2018-06-18T22:05:55.945Z,19.51
2018-06-18T22:08:27.498Z,19.46
2018-06-18T22:10:56.886Z,19.38
2018-06-18T22:13:26.222Z,19.30
2018-06-18T22:15:55.400Z,19.27
2018-06-18T22:18:24.854Z,19.23
2018-06-18T22:20:54.158Z,19.18
2018-06-18T22:23:23.589Z,19.12
2018-06-18T22:25:52.913Z,19.05
2018-06-18T22:28:32.887Z,19.03
2018-06-18T22:31:02.598Z,18.93
2018-06-18T22:33:31.950Z,18.84
2018-06-18T22:36:01.418Z,18.74
2018-06-18T22:38:30.711Z,18.68
2018-06-18T22:41:00.040Z,18.58
2018-06-18T22:43:29.480Z,18.50
2018-06-18T22:45:58.791Z,18.42
2018-06-18T22:48:28.094Z,18.37
2018-06-18T22:50:57.377Z,18.31
2018-06-18T22:53:26.784Z,18.26
2018-06-18T22:55:56.080Z,18.22
2018-06-18T22:58:25.499Z,18.17
2018-06-18T23:00:57.212Z,18.11
2018-06-18T23:03:26.577Z,18.04
2018-06-18T23:05:55.909Z,17.96
2018-06-18T23:08:25.379Z,17.93
2018-06-18T23:10:54.822Z,17.89
2018-06-18T23:13:29.803Z,17.90
2018-06-18T23:15:59.628Z,17.89
2018-06-18T23:18:29.322Z,17.87
2018-06-18T23:20:58.709Z,17.86
2018-06-18T23:23:28.047Z,17.84
2018-06-18T23:25:57.383Z,17.82
2018-06-18T23:28:49.784Z,17.72
2018-06-18T23:31:19.176Z,17.63
2018-06-18T23:33:48.547Z,17.58
2018-06-18T23:36:17.899Z,17.57
2018-06-18T23:38:47.275Z,17.53
2018-06-18T23:41:16.854Z,17.50
2018-06-18T23:43:46.206Z,17.48
2018-06-18T23:46:15.575Z,17.48
2018-06-18T23:48:44.972Z,17.46
2018-06-18T23:51:14.284Z,17.45
2018-06-18T23:53:43.562Z,17.39
2018-06-18T23:56:12.917Z,17.32
2018-06-18T23:58:42.287Z,17.29
